createdAt,value
2022-08-08T00:00:53.447Z,17.70
2022-08-08T00:03:32.318Z,17.71
2022-08-08T00:06:28.271Z,17.54
2022-08-08T00:09:16.132Z,17.48
2022-08-08T00:12:15.189Z,17.54
2022-08-08T00:15:04.930Z,17.44
2022-08-08T00:18:04.708Z,17.51
2022-08-08T00:20:57.732Z,17.44
2022-08-08T00:23:53.392Z,17.39
2022-08-08T00:26:34.601Z,17.40
2022-08-08T00:29:45.635Z,17.42
2022-08-08T00:32:36.337Z,17.34
2022-08-08T00:35:18.763Z,17.29
2022-08-08T00:38:02.361Z,17.31
2022-08-08T00:41:09.246Z,17.34
2022-08-08T00:43:40.754Z,17.28
2022-08-08T00:46:57.213Z,17.22
2022-08-08T00:49:32.295Z,17.21
2022-08-08T00:52:04.813Z,17.23
2022-08-08T00:54:43.783Z,17.20
2022-08-08T00:57:44.121Z,17.21
2022-08-08T01:00:19.724Z,17.19
2022-08-08T01:04:01.662Z,17.15
2022-08-08T01:06:30.909Z,17.09
2022-08-08T01:09:53.492Z,17.05
2022-08-08T01:12:37.181Z,17.06
2022-08-08T01:18:53.298Z,16.94
2022-08-08T01:21:35.036Z,16.89
2022-08-08T01:24:57.718Z,16.87
2022-08-08T01:28:02.839Z,16.82
2022-08-08T01:32:14.892Z,16.84
2022-08-08T01:34:36.139Z,16.83
2022-08-08T01:37:57.812Z,16.85
2022-08-08T01:40:38.527Z,16.82
2022-08-08T01:43:34.687Z,16.83
2022-08-08T01:46:52.481Z,16.80
2022-08-08T01:49:37.763Z,16.76
2022-08-08T01:55:14.787Z,16.74
2022-08-08T01:56:29.967Z,16.68
2022-08-08T01:59:49.262Z,16.70
2022-08-08T02:02:44.382Z,16.68
2022-08-08T02:05:33.901Z,16.73
2022-08-08T02:08:49.904Z,16.70
2022-08-08T02:11:59.992Z,16.63
2022-08-08T02:14:32.147Z,16.62
2022-08-08T02:17:20.195Z,16.56
2022-08-08T02:20:09.233Z,16.48
2022-08-08T02:23:07.673Z,16.48
2022-08-08T02:26:01.297Z,16.45
2022-08-08T02:28:41.382Z,16.42
2022-08-08T02:31:59.290Z,16.41
2022-08-08T02:35:08.507Z,16.38
2022-08-08T02:37:52.544Z,16.39
2022-08-08T02:40:45.338Z,16.32
2022-08-08T02:44:39.153Z,16.30
2022-08-08T02:47:00.909Z,16.32
2022-08-08T02:50:17.534Z,16.32
2022-08-08T02:53:24.264Z,16.27
2022-08-08T02:56:28.305Z,16.25
2022-08-08T02:59:55.695Z,16.14
2022-08-08T03:02:42.260Z,16.13
2022-08-08T03:05:32.899Z,16.07
2022-08-08T03:08:29.198Z,16.07
2022-08-08T03:12:01.512Z,16.09
2022-08-08T03:15:58.108Z,16.04
2022-08-08T03:17:39.243Z,16.06
2022-08-08T03:20:11.715Z,16.05
2022-08-08T03:22:56.742Z,16.03
2022-08-08T03:25:36.020Z,16.04
2022-08-08T03:28:28.510Z,16.11
2022-08-08T03:31:22.735Z,16.07
2022-08-08T03:33:55.254Z,16.03
2022-08-08T03:36:30.657Z,16.14
2022-08-08T03:39:15.321Z,16.08
2022-08-08T03:42:27.355Z,16.12
2022-08-08T03:44:38.757Z,16.11
2022-08-08T03:47:19.174Z,16.08
2022-08-08T03:50:00.994Z,16.15
2022-08-08T03:52:31.753Z,16.11
2022-08-08T03:55:09.855Z,16.10
2022-08-08T03:58:34.857Z,16.12
2022-08-08T04:00:27.060Z,16.19
2022-08-08T04:02:58.358Z,16.24
2022-08-08T04:05:30.752Z,16.26
2022-08-08T04:08:01.364Z,16.26
2022-08-08T04:10:32.322Z,16.32
2022-08-08T04:13:17.440Z,16.25
2022-08-08T04:15:55.020Z,16.23
2022-08-08T04:18:31.532Z,16.42
2022-08-08T04:20:59.673Z,16.45
2022-08-08T04:23:33.110Z,16.43
2022-08-08T04:26:15.110Z,16.53
2022-08-08T04:28:42.846Z,16.72
2022-08-08T04:31:10.721Z,16.79
2022-08-08T04:33:57.980Z,16.96
2022-08-08T04:36:24.988Z,17.15
2022-08-08T04:39:20.294Z,17.28
2022-08-08T04:41:40.231Z,17.50
2022-08-08T04:44:07.625Z,17.71
2022-08-08T04:46:35.043Z,17.94
2022-08-08T04:49:06.485Z,18.09
2022-08-08T04:51:55.164Z,18.36
2022-08-08T04:54:40.043Z,18.58
2022-08-08T04:57:09.360Z,18.82
2022-08-08T04:59:42.361Z,19.00
2022-08-08T05:02:09.947Z,19.31
2022-08-08T05:04:41.938Z,19.59
2022-08-08T05:07:11.930Z,19.84
2022-08-08T05:09:42.002Z,20.11
2022-08-08T05:12:09.257Z,20.33
2022-08-08T05:14:36.433Z,20.61
2022-08-08T05:17:08.797Z,20.74
2022-08-08T05:20:10.794Z,20.92
2022-08-08T05:22:25.286Z,21.13
2022-08-08T05:24:54.059Z,21.35
2022-08-08T05:27:21.631Z,21.51
2022-08-08T05:29:51.944Z,21.64
2022-08-08T05:32:24.813Z,21.75
2022-08-08T05:34:59.601Z,21.97
2022-08-08T05:37:49.220Z,22.13
2022-08-08T05:40:27.589Z,22.36
2022-08-08T05:42:59.781Z,22.51
2022-08-08T05:45:41.672Z,22.66
2022-08-08T05:48:12.235Z,22.80
2022-08-08T05:50:42.166Z,23.00
2022-08-08T05:53:54.463Z,23.18
2022-08-08T05:56:07.783Z,23.39
2022-08-08T05:58:57.756Z,23.58
2022-08-08T06:01:56.897Z,23.81
2022-08-08T06:04:25.258Z,23.94
2022-08-08T06:06:56.655Z,24.00
2022-08-08T06:09:58.587Z,24.25
2022-08-08T06:12:29.597Z,24.48
2022-08-08T06:15:03.283Z,24.65
2022-08-08T06:17:51.138Z,24.85
2022-08-08T06:20:20.817Z,25.00
2022-08-08T06:22:49.482Z,25.35
2022-08-08T06:25:18.415Z,25.40
2022-08-08T06:28:05.636Z,25.58
2022-08-08T06:30:36.480Z,25.68
2022-08-08T06:33:10.444Z,25.91
2022-08-08T06:36:08.189Z,26.12
2022-08-08T06:38:39.368Z,26.05
2022-08-08T06:41:13.350Z,26.30
2022-08-08T06:43:57.376Z,26.48
2022-08-08T06:46:25.027Z,26.67
2022-08-08T06:48:57.384Z,26.68
2022-08-08T06:51:31.418Z,26.86
2022-08-08T06:54:13.553Z,26.96
2022-08-08T06:56:42.099Z,27.10
2022-08-08T06:59:18.454Z,27.24
2022-08-08T07:02:27.655Z,27.35
2022-08-08T07:04:54.570Z,27.57
2022-08-08T07:07:55.281Z,27.87
2022-08-08T07:10:24.923Z,28.06
2022-08-08T07:13:07.666Z,28.30
2022-08-08T07:16:10.611Z,28.60
2022-08-08T07:18:51.176Z,28.92
2022-08-08T07:21:26.867Z,29.11
2022-08-08T07:24:13.233Z,29.20
2022-08-08T07:26:41.781Z,29.31
2022-08-08T07:29:11.608Z,29.49
2022-08-08T07:31:48.390Z,29.76
2022-08-08T07:34:20.025Z,29.97
2022-08-08T07:36:50.281Z,30.23
2022-08-08T07:39:29.109Z,30.46
2022-08-08T07:42:04.586Z,30.56
2022-08-08T07:44:37.433Z,30.54
2022-08-08T07:47:07.606Z,30.52
2022-08-08T07:49:35.093Z,30.57
2022-08-08T07:52:13.318Z,30.52
2022-08-08T07:55:06.450Z,30.81
2022-08-08T07:58:01.588Z,30.95
2022-08-08T08:00:43.590Z,31.09
2022-08-08T08:03:23.939Z,31.47
2022-08-08T08:05:56.549Z,31.32
2022-08-08T08:08:52.231Z,31.33
2022-08-08T08:11:23.859Z,31.64
2022-08-08T08:14:08.206Z,31.56
2022-08-08T08:16:41.088Z,31.52
2022-08-08T08:19:10.629Z,31.63
2022-08-08T08:21:53.488Z,31.65
2022-08-08T08:24:30.926Z,31.60
2022-08-08T08:27:02.851Z,31.67
2022-08-08T08:29:33.707Z,31.72
2022-08-08T08:32:05.448Z,31.56
2022-08-08T08:34:36.392Z,31.60
2022-08-08T08:37:08.331Z,31.60
2022-08-08T08:39:59.339Z,31.71
2022-08-08T08:42:31.485Z,31.78
2022-08-08T08:45:21.817Z,31.91
2022-08-08T08:47:58.201Z,32.08
2022-08-08T08:50:33.440Z,32.23
2022-08-08T08:53:28.201Z,32.28
2022-08-08T08:56:02.660Z,32.36
2022-08-08T08:58:49.848Z,32.69
2022-08-08T09:01:21.424Z,32.83
2022-08-08T09:03:51.707Z,32.84
2022-08-08T09:06:28.592Z,32.80
2022-08-08T09:09:18.728Z,32.98
2022-08-08T09:12:02.013Z,32.94
2022-08-08T09:14:42.670Z,32.99
2022-08-08T09:17:15.844Z,32.98
2022-08-08T09:22:01.964Z,33.12
2022-08-08T09:22:47.596Z,33.19
2022-08-08T09:25:15.244Z,32.99
2022-08-08T09:27:56.636Z,32.85
2022-08-08T09:30:26.685Z,33.11
2022-08-08T09:33:12.719Z,33.37
2022-08-08T09:35:49.992Z,33.65
2022-08-08T09:38:56.391Z,33.43
2022-08-08T09:41:54.993Z,33.45
2022-08-08T09:44:45.986Z,33.37
2022-08-08T09:48:02.024Z,33.46
2022-08-08T09:50:13.869Z,33.51
2022-08-08T09:52:54.083Z,33.50
2022-08-08T09:56:03.547Z,33.41
2022-08-08T09:58:33.132Z,33.57
2022-08-08T10:01:14.700Z,33.46
2022-08-08T10:03:44.532Z,33.70
2022-08-08T10:50:08.887Z,32.23
2022-08-08T10:52:38.206Z,32.37
2022-08-08T10:55:15.581Z,32.61
2022-08-08T10:58:06.711Z,32.71
2022-08-08T11:00:48.339Z,32.89
2022-08-08T11:03:18.956Z,33.00
2022-08-08T11:06:12.278Z,33.13
2022-08-08T11:08:50.179Z,32.81
2022-08-08T11:11:32.706Z,33.01
2022-08-08T11:14:12.236Z,33.26
2022-08-08T11:16:47.155Z,33.28
2022-08-08T11:19:18.070Z,32.86
2022-08-08T11:21:55.254Z,32.88
2022-08-08T11:24:29.111Z,32.92
2022-08-08T11:26:58.203Z,32.82
2022-08-08T11:29:41.933Z,32.92
2022-08-08T11:32:16.728Z,33.03
2022-08-08T11:35:08.766Z,32.87
2022-08-08T11:38:36.925Z,32.64
2022-08-08T11:40:28.792Z,32.66
2022-08-08T11:43:00.528Z,32.77
2022-08-08T11:45:29.838Z,32.60
2022-08-08T11:48:09.656Z,32.73
2022-08-08T11:50:37.966Z,32.77
2022-08-08T11:53:06.161Z,32.79
2022-08-08T11:55:37.573Z,32.71
2022-08-08T11:58:15.163Z,32.80
2022-08-08T12:00:48.423Z,32.73
2022-08-08T12:03:21.535Z,32.95
2022-08-08T12:05:49.398Z,33.14
2022-08-08T12:08:17.806Z,33.11
2022-08-08T12:10:53.146Z,33.06
2022-08-08T12:13:37.693Z,33.01
2022-08-08T12:16:20.549Z,33.32
2022-08-08T12:19:02.236Z,33.54
2022-08-08T12:21:59.919Z,33.64
2022-08-08T12:24:28.299Z,33.34
2022-08-08T12:26:56.969Z,33.15
2022-08-08T12:29:44.978Z,32.77
2022-08-08T12:32:20.780Z,32.52
2022-08-08T12:35:04.695Z,32.49
2022-08-08T12:37:43.109Z,32.45
2022-08-08T12:40:22.813Z,32.56
2022-08-08T12:42:53.168Z,32.86
2022-08-08T12:45:58.544Z,33.01
2022-08-08T12:48:37.512Z,33.14
2022-08-08T12:51:10.987Z,33.30
2022-08-08T12:53:57.596Z,33.26
2022-08-08T12:56:34.490Z,33.33
2022-08-08T12:59:03.430Z,33.39
2022-08-08T13:01:38.372Z,33.59
2022-08-08T13:04:24.358Z,33.67
2022-08-08T13:07:16.918Z,33.78
2022-08-08T13:10:05.744Z,33.73
2022-08-08T13:12:44.491Z,33.62
2022-08-08T13:15:16.463Z,33.43
2022-08-08T13:18:07.900Z,33.53
2022-08-08T13:20:31.916Z,33.77
2022-08-08T13:23:30.264Z,33.97
2022-08-08T13:25:58.780Z,34.04
2022-08-08T13:28:31.860Z,33.91
2022-08-08T13:31:01.594Z,33.51
2022-08-08T13:33:42.607Z,33.05
2022-08-08T13:36:11.234Z,32.65
2022-08-08T13:38:39.814Z,32.70
2022-08-08T13:41:17.005Z,32.77
2022-08-08T13:43:50.683Z,33.11
2022-08-08T13:46:26.532Z,33.22
2022-08-08T13:49:12.211Z,32.85
2022-08-08T13:51:56.445Z,32.20
2022-08-08T13:54:29.478Z,31.84
2022-08-08T13:57:13.275Z,31.69
2022-08-08T13:59:48.574Z,31.79
2022-08-08T14:02:32.912Z,32.20
2022-08-08T14:05:19.989Z,32.26
2022-08-08T14:07:52.253Z,32.20
2022-08-08T14:10:33.206Z,32.18
2022-08-08T14:13:21.078Z,32.06
2022-08-08T14:16:08.033Z,31.81
2022-08-08T14:18:59.204Z,31.45
2022-08-08T14:21:48.705Z,31.22
2022-08-08T14:24:32.496Z,30.94
2022-08-08T14:26:59.668Z,30.73
2022-08-08T14:29:30.562Z,30.64
2022-08-08T14:32:09.186Z,30.50
2022-08-08T14:34:42.269Z,30.47
2022-08-08T14:37:13.306Z,30.71
2022-08-08T14:40:06.505Z,31.08
2022-08-08T14:42:55.073Z,31.40
2022-08-08T14:45:29.136Z,31.60
2022-08-08T14:48:03.459Z,31.73
2022-08-08T14:50:37.977Z,32.02
2022-08-08T14:53:15.507Z,31.95
2022-08-08T14:55:43.584Z,32.03
2022-08-08T14:58:19.782Z,32.13
2022-08-08T15:00:49.014Z,32.23
2022-08-08T15:03:17.493Z,32.30
2022-08-08T15:05:54.640Z,32.39
2022-08-08T15:08:35.340Z,32.50
2022-08-08T15:11:19.141Z,32.60
2022-08-08T15:14:00.931Z,32.73
2022-08-08T15:16:34.099Z,32.80
2022-08-08T15:19:05.575Z,32.82
2022-08-08T15:21:34.400Z,32.62
2022-08-08T15:24:13.732Z,32.61
2022-08-08T15:26:41.849Z,32.33
2022-08-08T15:29:09.235Z,32.22
2022-08-08T15:32:04.008Z,32.26
2022-08-08T15:34:29.550Z,32.23
2022-08-08T15:37:02.270Z,32.17
2022-08-08T15:39:38.505Z,32.12
2022-08-08T15:42:10.048Z,31.81
2022-08-08T15:44:38.706Z,31.79
2022-08-08T15:47:16.211Z,31.60
2022-08-08T15:49:48.612Z,31.71
2022-08-08T15:52:17.617Z,31.74
2022-08-08T15:54:51.324Z,31.74
2022-08-08T15:57:19.909Z,31.55
2022-08-08T16:00:18.097Z,31.36
2022-08-08T16:02:35.487Z,31.31
2022-08-08T16:05:04.023Z,31.16
2022-08-08T16:07:51.604Z,30.96
2022-08-08T16:13:14.684Z,30.86
2022-08-08T16:13:34.371Z,30.73
2022-08-08T16:16:08.932Z,30.66
2022-08-08T16:18:41.263Z,30.38
2022-08-08T16:21:25.840Z,30.26
2022-08-08T16:23:55.510Z,30.10
2022-08-08T16:26:33.777Z,30.00
2022-08-08T16:29:15.498Z,29.83
2022-08-08T16:31:49.309Z,29.61
2022-08-08T16:34:24.816Z,29.42
2022-08-08T16:36:53.274Z,29.30
2022-08-08T16:39:48.987Z,29.06
2022-08-08T16:42:17.787Z,28.95
2022-08-08T16:44:55.175Z,28.74
2022-08-08T16:47:40.069Z,28.60
2022-08-08T16:50:14.998Z,28.52
2022-08-08T16:55:03.607Z,28.27
2022-08-08T16:55:55.199Z,28.03
2022-08-08T16:58:32.415Z,27.85
2022-08-08T17:01:03.415Z,27.69
2022-08-08T17:03:59.505Z,27.42
2022-08-08T17:06:37.340Z,27.31
2022-08-08T17:09:14.692Z,27.18
2022-08-08T17:11:49.150Z,26.95
2022-08-08T17:14:27.004Z,26.76
2022-08-08T17:16:58.932Z,26.60
2022-08-08T17:19:30.100Z,26.45
2022-08-08T17:22:01.390Z,26.31
2022-08-08T17:24:30.634Z,26.16
2022-08-08T17:26:59.638Z,25.98
2022-08-08T17:29:28.539Z,25.86
2022-08-08T17:32:02.140Z,25.64
2022-08-08T17:34:48.704Z,25.50
2022-08-08T17:37:19.113Z,25.41
2022-08-08T17:40:12.222Z,25.22
2022-08-08T17:42:33.299Z,25.15
2022-08-08T17:45:00.434Z,25.00
2022-08-08T17:47:37.585Z,24.91
2022-08-08T17:50:09.613Z,24.77
2022-08-08T17:52:38.410Z,24.67
2022-08-08T17:56:05.261Z,24.57
2022-08-08T17:58:02.036Z,24.42
2022-08-08T18:00:30.689Z,24.35
2022-08-08T18:03:07.669Z,24.25
2022-08-08T18:05:48.530Z,24.13
2022-08-08T18:08:25.089Z,24.03
2022-08-08T18:11:15.818Z,23.99
2022-08-08T18:13:47.522Z,23.91
2022-08-08T18:16:20.520Z,23.78
2022-08-08T18:18:53.466Z,23.73
2022-08-08T18:21:35.336Z,23.68
2022-08-08T18:24:17.336Z,23.59
2022-08-08T18:26:55.042Z,23.55
2022-08-08T18:29:34.134Z,23.45
2022-08-08T18:32:07.422Z,23.41
2022-08-08T18:34:35.830Z,23.29
2022-08-08T18:37:06.481Z,23.25
2022-08-08T18:39:36.717Z,23.19
2022-08-08T18:42:13.650Z,23.19
2022-08-08T18:44:42.348Z,23.22
2022-08-08T18:47:23.948Z,23.13
2022-08-08T18:49:57.443Z,23.11
2022-08-08T18:52:25.824Z,23.17
2022-08-08T18:55:00.217Z,23.14
2022-08-08T18:57:41.231Z,23.12
2022-08-08T19:00:20.611Z,23.08
2022-08-08T19:02:57.170Z,23.04
2022-08-08T19:05:38.489Z,23.06
2022-08-08T19:08:23.966Z,23.01
2022-08-08T19:10:54.277Z,22.94
2022-08-08T19:13:25.183Z,22.87
2022-08-08T19:15:55.982Z,22.96
2022-08-08T19:18:32.461Z,22.92
2022-08-08T19:21:29.431Z,22.92
2022-08-08T19:23:59.680Z,22.99
2022-08-08T19:26:30.131Z,22.92
2022-08-08T19:28:59.122Z,22.93
2022-08-08T19:31:31.317Z,22.85
2022-08-08T19:34:15.342Z,22.73
2022-08-08T19:36:47.370Z,22.77
2022-08-08T19:39:15.645Z,22.70
2022-08-08T19:41:47.126Z,22.77
2022-08-08T19:44:43.158Z,22.67
2022-08-08T19:47:04.297Z,22.69
2022-08-08T19:49:36.498Z,22.53
2022-08-08T19:52:06.928Z,22.59
2022-08-08T19:54:35.524Z,22.63
2022-08-08T19:57:07.778Z,22.53
2022-08-08T19:59:35.899Z,22.57
2022-08-08T20:02:05.278Z,22.33
2022-08-08T20:04:37.779Z,22.44
2022-08-08T20:08:30.274Z,22.42
2022-08-08T20:09:57.151Z,22.46
2022-08-08T20:12:32.342Z,22.44
2022-08-08T20:15:15.110Z,22.42
2022-08-08T20:17:45.915Z,22.47
2022-08-08T20:20:15.962Z,22.41
2022-08-08T20:22:53.986Z,22.50
2022-08-08T20:25:22.304Z,22.39
2022-08-08T20:27:54.163Z,22.51
2022-08-08T20:30:41.852Z,22.43
2022-08-08T20:33:19.888Z,22.43
2022-08-08T20:35:58.011Z,22.46
2022-08-08T20:38:31.881Z,22.43
2022-08-08T20:41:05.937Z,22.37
2022-08-08T20:43:48.134Z,22.30
2022-08-08T20:46:16.332Z,22.29
2022-08-08T20:48:44.804Z,22.25
2022-08-08T20:51:14.326Z,22.30
2022-08-08T20:54:00.109Z,22.23
2022-08-08T20:56:35.764Z,22.32
2022-08-08T20:59:16.317Z,22.24
2022-08-08T21:02:07.796Z,22.21
2022-08-08T21:04:36.906Z,22.27
2022-08-08T21:07:08.386Z,22.24
2022-08-08T21:10:01.475Z,22.15
2022-08-08T21:12:35.780Z,22.19
2022-08-08T21:15:07.017Z,22.10
2022-08-08T21:17:35.325Z,22.09
2022-08-08T21:20:04.623Z,22.03
2022-08-08T21:22:32.564Z,22.00
2022-08-08T21:24:59.848Z,22.11
2022-08-08T21:28:06.581Z,22.11
2022-08-08T21:30:18.610Z,22.05
2022-08-08T21:32:51.091Z,22.08
2022-08-08T21:36:16.326Z,22.06
2022-08-08T21:38:18.011Z,21.97
2022-08-08T21:40:56.218Z,22.02
2022-08-08T21:43:32.898Z,21.91
2022-08-08T21:48:07.694Z,22.00
2022-08-08T21:48:56.247Z,21.86
2022-08-08T21:54:18.852Z,21.78
2022-08-08T21:54:35.369Z,21.80
2022-08-08T21:57:02.723Z,21.69
2022-08-08T22:00:02.753Z,21.71
2022-08-08T22:02:19.640Z,21.78
2022-08-08T22:04:55.956Z,21.66
2022-08-08T22:07:39.712Z,21.74
2022-08-08T22:10:18.654Z,21.67
2022-08-08T22:13:19.010Z,21.60
2022-08-08T22:15:58.646Z,21.47
2022-08-08T22:18:31.743Z,21.46
2022-08-08T22:21:14.312Z,21.42
2022-08-08T22:23:51.343Z,21.40
2022-08-08T22:26:29.877Z,21.33
2022-08-08T22:29:12.915Z,21.28
2022-08-08T22:31:58.359Z,21.26
2022-08-08T22:34:39.400Z,21.18
2022-08-08T22:37:24.495Z,21.06
2022-08-08T22:40:01.460Z,21.12
2022-08-08T22:42:31.742Z,21.06
2022-08-08T22:45:01.678Z,20.82
2022-08-08T22:47:38.351Z,20.92
2022-08-08T22:50:25.930Z,20.69
2022-08-08T22:54:29.240Z,20.71
2022-08-08T22:55:59.476Z,20.60
2022-08-08T22:58:34.303Z,20.56
2022-08-08T23:02:00.906Z,20.40
2022-08-08T23:03:56.986Z,20.38
2022-08-08T23:06:24.820Z,20.35
2022-08-08T23:08:54.741Z,20.19
2022-08-08T23:11:30.792Z,20.16
2022-08-08T23:14:11.854Z,19.93
2022-08-08T23:16:47.040Z,19.81
2022-08-08T23:19:15.605Z,19.75
2022-08-08T23:21:46.930Z,19.67
2022-08-08T23:24:22.821Z,19.66
2022-08-08T23:26:53.263Z,19.65
2022-08-08T23:29:25.424Z,19.71
2022-08-08T23:31:53.231Z,19.66
2022-08-08T23:34:21.667Z,19.51
2022-08-08T23:36:52.822Z,19.47
2022-08-08T23:39:21.507Z,19.48
2022-08-08T23:41:49.485Z,19.44
2022-08-08T23:44:18.511Z,19.26
2022-08-08T23:49:05.195Z,19.26
2022-08-08T23:49:34.326Z,19.26
2022-08-08T23:52:06.234Z,19.01
2022-08-08T23:54:43.053Z,19.02
2022-08-08T23:57:26.409Z,19.02
